sensor_id;sensor_type;location;lat;lon;timestamp;P1;durP1;ratioP1;P2;durP2;ratioP2
3309;SDS011;1667;53.238;10.394;2023-06-26T00:04:14;7.73;;;7.03;;
3309;SDS011;1667;53.238;10.394;2023-06-26T00:09:12;8.20;;;7.47;;
3309;SDS011;1667;53.238;10.394;2023-06-26T00:14:10;7.87;;;7.17;;
3309;SDS011;1667;53.238;10.394;2023-06-26T00:19:09;9.60;;;8.60;;
3309;SDS011;1667;53.238;10.394;2023-06-26T00:24:09;9.63;;;8.03;;
3309;SDS011;1667;53.238;10.394;2023-06-26T00:29:07;10.40;;;8.73;;
3309;SDS011;1667;53.238;10.394;2023-06-26T00:34:06;8.47;;;7.63;;
3309;SDS011;1667;53.238;10.394;2023-06-26T00:39:05;8.90;;;8.00;;
3309;SDS011;1667;53.238;10.394;2023-06-26T00:44:05;9.47;;;8.10;;
3309;SDS011;1667;53.238;10.394;2023-06-26T00:49:04;9.43;;;8.53;;
3309;SDS011;1667;53.238;10.394;2023-06-26T00:54:03;9.37;;;8.47;;
3309;SDS011;1667;53.238;10.394;2023-06-26T00:59:02;7.27;;;6.57;;
3309;SDS011;1667;53.238;10.394;2023-06-26T01:04:02;7.83;;;7.10;;
3309;SDS011;1667;53.238;10.394;2023-06-26T01:09:02;9.33;;;8.43;;
3309;SDS011;1667;53.238;10.394;2023-06-26T01:14:01;7.67;;;6.97;;
3309;SDS011;1667;53.238;10.394;2023-06-26T01:18:59;8.03;;;7.23;;
3309;SDS011;1667;53.238;10.394;2023-06-26T01:24:07;8.57;;;7.87;;
3309;SDS011;1667;53.238;10.394;2023-06-26T01:29:20;6.97;;;6.37;;
3309;SDS011;1667;53.238;10.394;2023-06-26T01:34:20;8.00;;;7.30;;
3309;SDS011;1667;53.238;10.394;2023-06-26T01:39:19;7.80;;;7.10;;
3309;SDS011;1667;53.238;10.394;2023-06-26T01:44:26;8.10;;;7.30;;
3309;SDS011;1667;53.238;10.394;2023-06-26T01:49:30;7.77;;;6.57;;
3309;SDS011;1667;53.238;10.394;2023-06-26T01:54:37;6.80;;;6.20;;
3309;SDS011;1667;53.238;10.394;2023-06-26T01:59:52;8.47;;;7.57;;
3309;SDS011;1667;53.238;10.394;2023-06-26T02:04:52;6.60;;;6.00;;
3309;SDS011;1667;53.238;10.394;2023-06-26T02:09:51;7.20;;;6.50;;
3309;SDS011;1667;53.238;10.394;2023-06-26T02:14:49;6.97;;;6.20;;
3309;SDS011;1667;53.238;10.394;2023-06-26T02:19:54;8.30;;;7.20;;
3309;SDS011;1667;53.238;10.394;2023-06-26T02:24:52;8.87;;;7.97;;
3309;SDS011;1667;53.238;10.394;2023-06-26T02:29:51;8.50;;;7.70;;
3309;SDS011;1667;53.238;10.394;2023-06-26T02:34:49;6.50;;;5.90;;
3309;SDS011;1667;53.238;10.394;2023-06-26T02:39:49;7.20;;;6.50;;
3309;SDS011;1667;53.238;10.394;2023-06-26T02:44:48;9.50;;;8.60;;
3309;SDS011;1667;53.238;10.394;2023-06-26T02:49:47;9.30;;;7.70;;
3309;SDS011;1667;53.238;10.394;2023-06-26T02:54:47;8.57;;;7.67;;
3309;SDS011;1667;53.238;10.394;2023-06-26T02:59:47;6.83;;;5.60;;
3309;SDS011;1667;53.238;10.394;2023-06-26T03:04:45;8.23;;;7.40;;
3309;SDS011;1667;53.238;10.394;2023-06-26T03:09:44;7.10;;;6.20;;
3309;SDS011;1667;53.238;10.394;2023-06-26T03:14:43;6.93;;;6.33;;
3309;SDS011;1667;53.238;10.394;2023-06-26T03:19:44;8.03;;;7.23;;
3309;SDS011;1667;53.238;10.394;2023-06-26T03:24:51;8.40;;;7.10;;
3309;SDS011;1667;53.238;10.394;2023-06-26T03:29:50;8.73;;;7.87;;
3309;SDS011;1667;53.238;10.394;2023-06-26T03:34:52;7.03;;;6.33;;
3309;SDS011;1667;53.238;10.394;2023-06-26T03:39:51;10.37;;;9.27;;
3309;SDS011;1667;53.238;10.394;2023-06-26T03:44:50;6.70;;;5.90;;
3309;SDS011;1667;53.238;10.394;2023-06-26T03:49:49;7.37;;;6.63;;
3309;SDS011;1667;53.238;10.394;2023-06-26T03:54:49;7.83;;;7.07;;
3309;SDS011;1667;53.238;10.394;2023-06-26T03:59:47;8.70;;;7.80;;
3309;SDS011;1667;53.238;10.394;2023-06-26T04:04:46;8.70;;;7.90;;
3309;SDS011;1667;53.238;10.394;2023-06-26T04:09:45;8.70;;;7.90;;
3309;SDS011;1667;53.238;10.394;2023-06-26T04:14:45;9.83;;;8.83;;
3309;SDS011;1667;53.238;10.394;2023-06-26T04:19:43;8.80;;;7.90;;
3309;SDS011;1667;53.238;10.394;2023-06-26T04:24:42;8.13;;;7.37;;
3309;SDS011;1667;53.238;10.394;2023-06-26T04:29:42;9.53;;;8.53;;
3309;SDS011;1667;53.238;10.394;2023-06-26T04:34:42;7.57;;;6.87;;
3309;SDS011;1667;53.238;10.394;2023-06-26T04:39:41;7.27;;;6.57;;
3309;SDS011;1667;53.238;10.394;2023-06-26T04:44:39;7.90;;;6.70;;
3309;SDS011;1667;53.238;10.394;2023-06-26T04:49:40;6.33;;;5.73;;
3309;SDS011;1667;53.238;10.394;2023-06-26T04:54:40;7.63;;;6.90;;
3309;SDS011;1667;53.238;10.394;2023-06-26T04:59:38;7.17;;;6.50;;
3309;SDS011;1667;53.238;10.394;2023-06-26T05:04:37;8.03;;;5.80;;
3309;SDS011;1667;53.238;10.394;2023-06-26T05:09:37;6.80;;;6.20;;
3309;SDS011;1667;53.238;10.394;2023-06-26T05:14:36;8.40;;;6.23;;
3309;SDS011;1667;53.238;10.394;2023-06-26T05:19:35;7.10;;;6.27;;
3309;SDS011;1667;53.238;10.394;2023-06-26T05:24:33;7.30;;;6.63;;
3309;SDS011;1667;53.238;10.394;2023-06-26T05:29:35;7.40;;;6.60;;
3309;SDS011;1667;53.238;10.394;2023-06-26T05:34:34;9.43;;;5.80;;
3309;SDS011;1667;53.238;10.394;2023-06-26T05:39:33;7.30;;;6.50;;
3309;SDS011;1667;53.238;10.394;2023-06-26T05:44:32;6.87;;;5.93;;
3309;SDS011;1667;53.238;10.394;2023-06-26T05:49:33;9.07;;;6.60;;
3309;SDS011;1667;53.238;10.394;2023-06-26T05:54:31;7.07;;;6.40;;
3309;SDS011;1667;53.238;10.394;2023-06-26T05:59:30;6.57;;;5.53;;
3309;SDS011;1667;53.238;10.394;2023-06-26T06:04:30;5.47;;;5.00;;
3309;SDS011;1667;53.238;10.394;2023-06-26T06:09:29;5.73;;;5.23;;
3309;SDS011;1667;53.238;10.394;2023-06-26T06:14:27;6.47;;;5.87;;
3309;SDS011;1667;53.238;10.394;2023-06-26T06:19:26;6.10;;;5.50;;
3309;SDS011;1667;53.238;10.394;2023-06-26T06:24:26;7.57;;;6.00;;
3309;SDS011;1667;53.238;10.394;2023-06-26T06:29:25;5.33;;;4.93;;
3309;SDS011;1667;53.238;10.394;2023-06-26T06:34:23;5.57;;;5.07;;
3309;SDS011;1667;53.238;10.394;2023-06-26T06:39:22;5.50;;;4.87;;
3309;SDS011;1667;53.238;10.394;2023-06-26T06:44:22;5.47;;;4.50;;
3309;SDS011;1667;53.238;10.394;2023-06-26T06:49:20;6.30;;;5.13;;
3309;SDS011;1667;53.238;10.394;2023-06-26T06:54:19;5.20;;;4.70;;
3309;SDS011;1667;53.238;10.394;2023-06-26T06:59:18;4.80;;;4.40;;
3309;SDS011;1667;53.238;10.394;2023-06-26T07:04:18;6.27;;;4.83;;
3309;SDS011;1667;53.238;10.394;2023-06-26T07:09:17;6.43;;;5.30;;
3309;SDS011;1667;53.238;10.394;2023-06-26T07:14:15;6.10;;;5.60;;
3309;SDS011;1667;53.238;10.394;2023-06-26T07:19:20;4.97;;;4.40;;
3309;SDS011;1667;53.238;10.394;2023-06-26T07:24:19;4.90;;;4.50;;
3309;SDS011;1667;53.238;10.394;2023-06-26T07:29:17;5.43;;;4.87;;
3309;SDS011;1667;53.238;10.394;2023-06-26T07:34:16;6.13;;;5.53;;
3309;SDS011;1667;53.238;10.394;2023-06-26T07:39:16;5.87;;;4.80;;
3309;SDS011;1667;53.238;10.394;2023-06-26T07:44:19;5.20;;;4.70;;
3309;SDS011;1667;53.238;10.394;2023-06-26T07:49:17;4.90;;;4.50;;
3309;SDS011;1667;53.238;10.394;2023-06-26T07:54:17;5.67;;;4.80;;
3309;SDS011;1667;53.238;10.394;2023-06-26T07:59:16;9.00;;;5.40;;
3309;SDS011;1667;53.238;10.394;2023-06-26T08:04:14;6.37;;;5.77;;
3309;SDS011;1667;53.238;10.394;2023-06-26T08:09:13;5.80;;;5.30;;
3309;SDS011;1667;53.238;10.394;2023-06-26T08:14:13;5.63;;;4.60;;
3309;SDS011;1667;53.238;10.394;2023-06-26T08:19:11;5.70;;;5.00;;
3309;SDS011;1667;53.238;10.394;2023-06-26T08:24:10;6.30;;;5.70;;
3309;SDS011;1667;53.238;10.394;2023-06-26T08:29:10;7.57;;;5.10;;
3309;SDS011;1667;53.238;10.394;2023-06-26T08:34:11;6.93;;;6.07;;
3309;SDS011;1667;53.238;10.394;2023-06-26T08:39:09;7.67;;;6.63;;
3309;SDS011;1667;53.238;10.394;2023-06-26T08:44:08;5.70;;;5.13;;
3309;SDS011;1667;53.238;10.394;2023-06-26T08:49:11;11.27;;;5.97;;
3309;SDS011;1667;53.238;10.394;2023-06-26T08:54:12;8.40;;;6.17;;
3309;SDS011;1667;53.238;10.394;2023-06-26T08:59:13;6.83;;;6.13;;
3309;SDS011;1667;53.238;10.394;2023-06-26T09:04:14;6.90;;;5.70;;
3309;SDS011;1667;53.238;10.394;2023-06-26T09:09:12;7.87;;;5.50;;
3309;SDS011;1667;53.238;10.394;2023-06-26T09:14:11;9.97;;;6.10;;
3309;SDS011;1667;53.238;10.394;2023-06-26T09:19:11;6.70;;;5.57;;
3309;SDS011;1667;53.238;10.394;2023-06-26T09:24:11;12.37;;;6.50;;
3309;SDS011;1667;53.238;10.394;2023-06-26T09:29:10;5.40;;;4.93;;
3309;SDS011;1667;53.238;10.394;2023-06-26T09:34:09;5.40;;;4.90;;
3309;SDS011;1667;53.238;10.394;2023-06-26T09:39:09;5.90;;;5.30;;
3309;SDS011;1667;53.238;10.394;2023-06-26T09:44:10;7.20;;;5.60;;
3309;SDS011;1667;53.238;10.394;2023-06-26T09:49:10;5.77;;;5.27;;
3309;SDS011;1667;53.238;10.394;2023-06-26T09:54:11;6.47;;;5.87;;
3309;SDS011;1667;53.238;10.394;2023-06-26T09:59:10;6.87;;;6.20;;
3309;SDS011;1667;53.238;10.394;2023-06-26T10:04:08;8.67;;;7.30;;
3309;SDS011;1667;53.238;10.394;2023-06-26T10:09:07;7.20;;;6.60;;
3309;SDS011;1667;53.238;10.394;2023-06-26T10:14:08;6.90;;;6.30;;
3309;SDS011;1667;53.238;10.394;2023-06-26T10:19:14;11.00;;;7.13;;
3309;SDS011;1667;53.238;10.394;2023-06-26T10:24:20;7.83;;;6.20;;
3309;SDS011;1667;53.238;10.394;2023-06-26T10:29:21;8.70;;;6.57;;
3309;SDS011;1667;53.238;10.394;2023-06-26T10:34:22;8.53;;;7.60;;
3309;SDS011;1667;53.238;10.394;2023-06-26T10:39:21;7.87;;;7.10;;
3309;SDS011;1667;53.238;10.394;2023-06-26T10:44:21;7.87;;;4.57;;
3309;SDS011;1667;53.238;10.394;2023-06-26T10:49:20;9.63;;;6.47;;
3309;SDS011;1667;53.238;10.394;2023-06-26T10:54:22;4.73;;;4.30;;
3309;SDS011;1667;53.238;10.394;2023-06-26T10:59:22;5.50;;;3.87;;
3309;SDS011;1667;53.238;10.394;2023-06-26T11:04:36;6.00;;;3.80;;
3309;SDS011;1667;53.238;10.394;2023-06-26T11:09:37;4.30;;;3.70;;
3309;SDS011;1667;53.238;10.394;2023-06-26T11:14:53;6.30;;;3.50;;
3309;SDS011;1667;53.238;10.394;2023-06-26T11:26:47;6.60;;;4.57;;
3309;SDS011;1667;53.238;10.394;2023-06-26T11:31:47;5.40;;;4.80;;
3309;SDS011;1667;53.238;10.394;2023-06-26T11:36:59;6.90;;;5.73;;
3309;SDS011;1667;53.238;10.394;2023-06-26T11:41:59;5.47;;;4.43;;
3309;SDS011;1667;53.238;10.394;2023-06-26T11:47:01;10.43;;;6.80;;
3309;SDS011;1667;53.238;10.394;2023-06-26T11:51:59;7.17;;;5.87;;
3309;SDS011;1667;53.238;10.394;2023-06-26T11:57:02;7.03;;;5.57;;
3309;SDS011;1667;53.238;10.394;2023-06-26T12:02:04;7.13;;;6.40;;
3309;SDS011;1667;53.238;10.394;2023-06-26T12:07:03;6.50;;;5.70;;
3309;SDS011;1667;53.238;10.394;2023-06-26T12:12:05;7.87;;;5.27;;
3309;SDS011;1667;53.238;10.394;2023-06-26T12:17:08;11.17;;;6.30;;
3309;SDS011;1667;53.238;10.394;2023-06-26T12:22:08;4.50;;;4.10;;
3309;SDS011;1667;53.238;10.394;2023-06-26T12:27:08;7.40;;;3.87;;
3309;SDS011;1667;53.238;10.394;2023-06-26T12:32:11;5.60;;;3.17;;
3309;SDS011;1667;53.238;10.394;2023-06-26T12:37:11;4.07;;;3.30;;
3309;SDS011;1667;53.238;10.394;2023-06-26T12:42:12;3.00;;;2.70;;
3309;SDS011;1667;53.238;10.394;2023-06-26T12:47:13;3.83;;;2.90;;
3309;SDS011;1667;53.238;10.394;2023-06-26T12:52:13;3.33;;;2.17;;
3309;SDS011;1667;53.238;10.394;2023-06-26T12:57:13;5.60;;;1.90;;
3309;SDS011;1667;53.238;10.394;2023-06-26T13:02:13;4.70;;;2.30;;
3309;SDS011;1667;53.238;10.394;2023-06-26T13:07:12;7.27;;;2.37;;
3309;SDS011;1667;53.238;10.394;2023-06-26T13:12:10;2.40;;;1.97;;
3309;SDS011;1667;53.238;10.394;2023-06-26T13:17:10;5.53;;;2.50;;
3309;SDS011;1667;53.238;10.394;2023-06-26T13:22:10;2.90;;;1.70;;
3309;SDS011;1667;53.238;10.394;2023-06-26T13:27:09;5.43;;;1.93;;
3309;SDS011;1667;53.238;10.394;2023-06-26T13:32:08;4.23;;;2.07;;
3309;SDS011;1667;53.238;10.394;2023-06-26T13:37:08;3.97;;;2.00;;
3309;SDS011;1667;53.238;10.394;2023-06-26T13:42:06;3.17;;;1.90;;
3309;SDS011;1667;53.238;10.394;2023-06-26T13:47:06;4.60;;;1.80;;
3309;SDS011;1667;53.238;10.394;2023-06-26T13:52:06;7.33;;;1.90;;
3309;SDS011;1667;53.238;10.394;2023-06-26T13:57:06;4.97;;;1.60;;
3309;SDS011;1667;53.238;10.394;2023-06-26T14:02:05;4.60;;;2.13;;
3309;SDS011;1667;53.238;10.394;2023-06-26T14:07:04;2.40;;;1.67;;
3309;SDS011;1667;53.238;10.394;2023-06-26T14:12:06;3.40;;;1.70;;
3309;SDS011;1667;53.238;10.394;2023-06-26T14:17:05;2.77;;;1.90;;
3309;SDS011;1667;53.238;10.394;2023-06-26T14:22:05;2.57;;;2.10;;
3309;SDS011;1667;53.238;10.394;2023-06-26T14:27:05;2.00;;;1.80;;
3309;SDS011;1667;53.238;10.394;2023-06-26T14:32:05;6.60;;;2.77;;
3309;SDS011;1667;53.238;10.394;2023-06-26T14:37:04;4.23;;;1.67;;
3309;SDS011;1667;53.238;10.394;2023-06-26T14:42:03;4.00;;;2.17;;
3309;SDS011;1667;53.238;10.394;2023-06-26T14:47:04;3.60;;;1.67;;
3309;SDS011;1667;53.238;10.394;2023-06-26T14:52:03;4.10;;;1.90;;
3309;SDS011;1667;53.238;10.394;2023-06-26T14:57:02;4.53;;;2.03;;
3309;SDS011;1667;53.238;10.394;2023-06-26T15:02:02;4.23;;;2.10;;
3309;SDS011;1667;53.238;10.394;2023-06-26T15:07:01;3.60;;;1.77;;
3309;SDS011;1667;53.238;10.394;2023-06-26T15:12:00;3.00;;;1.90;;
3309;SDS011;1667;53.238;10.394;2023-06-26T15:16:58;2.00;;;1.17;;
3309;SDS011;1667;53.238;10.394;2023-06-26T15:21:58;1.90;;;1.40;;
3309;SDS011;1667;53.238;10.394;2023-06-26T15:26:56;3.20;;;1.90;;
3309;SDS011;1667;53.238;10.394;2023-06-26T15:31:54;3.13;;;2.00;;
3309;SDS011;1667;53.238;10.394;2023-06-26T15:36:53;2.90;;;1.50;;
3309;SDS011;1667;53.238;10.394;2023-06-26T15:41:53;3.13;;;1.90;;
3309;SDS011;1667;53.238;10.394;2023-06-26T15:46:51;2.03;;;1.70;;
3309;SDS011;1667;53.238;10.394;2023-06-26T15:51:51;2.93;;;1.37;;
3309;SDS011;1667;53.238;10.394;2023-06-26T15:56:49;2.40;;;2.20;;
3309;SDS011;1667;53.238;10.394;2023-06-26T16:01:49;2.33;;;1.50;;
3309;SDS011;1667;53.238;10.394;2023-06-26T16:06:48;1.93;;;1.73;;
3309;SDS011;1667;53.238;10.394;2023-06-26T16:11:46;2.90;;;1.30;;
3309;SDS011;1667;53.238;10.394;2023-06-26T16:16:45;1.07;;;1.07;;
3309;SDS011;1667;53.238;10.394;2023-06-26T16:21:44;3.53;;;1.57;;
3309;SDS011;1667;53.238;10.394;2023-06-26T16:26:43;2.60;;;1.50;;
3309;SDS011;1667;53.238;10.394;2023-06-26T16:31:41;1.87;;;1.47;;
3309;SDS011;1667;53.238;10.394;2023-06-26T16:36:40;1.50;;;1.30;;
3309;SDS011;1667;53.238;10.394;2023-06-26T16:41:40;3.57;;;1.47;;
3309;SDS011;1667;53.238;10.394;2023-06-26T16:53:27;4.40;;;1.50;;
3309;SDS011;1667;53.238;10.394;2023-06-26T16:58:27;1.60;;;1.50;;
3309;SDS011;1667;53.238;10.394;2023-06-26T17:03:26;2.07;;;1.33;;
3309;SDS011;1667;53.238;10.394;2023-06-26T17:08:25;1.37;;;1.20;;
3309;SDS011;1667;53.238;10.394;2023-06-26T17:13:23;1.47;;;1.20;;
3309;SDS011;1667;53.238;10.394;2023-06-26T17:18:23;2.27;;;1.30;;
3309;SDS011;1667;53.238;10.394;2023-06-26T17:23:22;2.27;;;1.40;;
3309;SDS011;1667;53.238;10.394;2023-06-26T17:28:21;1.60;;;1.13;;
3309;SDS011;1667;53.238;10.394;2023-06-26T17:33:19;2.80;;;1.20;;
3309;SDS011;1667;53.238;10.394;2023-06-26T17:38:19;3.43;;;1.00;;
3309;SDS011;1667;53.238;10.394;2023-06-26T17:43:17;1.73;;;1.43;;
3309;SDS011;1667;53.238;10.394;2023-06-26T17:48:17;2.10;;;1.33;;
3309;SDS011;1667;53.238;10.394;2023-06-26T17:53:15;1.50;;;1.10;;
3309;SDS011;1667;53.238;10.394;2023-06-26T17:58:15;5.93;;;1.60;;
3309;SDS011;1667;53.238;10.394;2023-06-26T18:03:14;3.07;;;1.80;;
3309;SDS011;1667;53.238;10.394;2023-06-26T18:08:13;4.50;;;1.90;;
3309;SDS011;1667;53.238;10.394;2023-06-26T18:13:12;2.93;;;1.87;;
3309;SDS011;1667;53.238;10.394;2023-06-26T18:18:11;3.07;;;1.73;;
3309;SDS011;1667;53.238;10.394;2023-06-26T18:23:12;1.43;;;1.30;;
3309;SDS011;1667;53.238;10.394;2023-06-26T18:28:10;1.77;;;1.57;;
3309;SDS011;1667;53.238;10.394;2023-06-26T18:33:12;2.60;;;1.40;;
3309;SDS011;1667;53.238;10.394;2023-06-26T18:38:10;3.43;;;1.83;;
3309;SDS011;1667;53.238;10.394;2023-06-26T18:43:10;2.13;;;1.70;;
3309;SDS011;1667;53.238;10.394;2023-06-26T18:48:08;2.70;;;1.80;;
3309;SDS011;1667;53.238;10.394;2023-06-26T18:53:09;5.07;;;2.10;;
3309;SDS011;1667;53.238;10.394;2023-06-26T18:58:07;2.10;;;1.50;;
3309;SDS011;1667;53.238;10.394;2023-06-26T19:03:06;1.70;;;1.60;;
3309;SDS011;1667;53.238;10.394;2023-06-26T19:08:05;7.73;;;2.33;;
3309;SDS011;1667;53.238;10.394;2023-06-26T19:13:05;3.23;;;1.93;;
3309;SDS011;1667;53.238;10.394;2023-06-26T19:18:03;3.20;;;2.13;;
3309;SDS011;1667;53.238;10.394;2023-06-26T19:23:02;3.03;;;1.87;;
3309;SDS011;1667;53.238;10.394;2023-06-26T19:28:01;3.93;;;2.13;;
3309;SDS011;1667;53.238;10.394;2023-06-26T19:33:02;6.33;;;2.47;;
3309;SDS011;1667;53.238;10.394;2023-06-26T19:38:00;3.50;;;2.10;;
3309;SDS011;1667;53.238;10.394;2023-06-26T19:43:01;2.53;;;1.50;;
3309;SDS011;1667;53.238;10.394;2023-06-26T19:48:02;4.63;;;1.57;;
3309;SDS011;1667;53.238;10.394;2023-06-26T19:53:01;4.17;;;2.00;;
3309;SDS011;1667;53.238;10.394;2023-06-26T19:57:59;4.90;;;2.37;;
3309;SDS011;1667;53.238;10.394;2023-06-26T20:02:58;3.50;;;1.67;;
3309;SDS011;1667;53.238;10.394;2023-06-26T20:07:58;4.37;;;1.80;;
3309;SDS011;1667;53.238;10.394;2023-06-26T20:12:56;8.97;;;1.97;;
3309;SDS011;1667;53.238;10.394;2023-06-26T20:17:55;4.40;;;1.67;;
3309;SDS011;1667;53.238;10.394;2023-06-26T20:22:54;4.03;;;1.80;;
3309;SDS011;1667;53.238;10.394;2023-06-26T20:27:55;2.80;;;1.53;;
3309;SDS011;1667;53.238;10.394;2023-06-26T20:32:54;3.10;;;1.40;;
3309;SDS011;1667;53.238;10.394;2023-06-26T20:37:52;5.47;;;2.10;;
3309;SDS011;1667;53.238;10.394;2023-06-26T20:42:51;5.20;;;2.20;;
3309;SDS011;1667;53.238;10.394;2023-06-26T20:47:52;4.00;;;1.87;;
3309;SDS011;1667;53.238;10.394;2023-06-26T20:52:51;6.77;;;2.07;;
3309;SDS011;1667;53.238;10.394;2023-06-26T20:57:51;4.00;;;1.70;;
3309;SDS011;1667;53.238;10.394;2023-06-26T21:02:49;1.80;;;1.70;;
3309;SDS011;1667;53.238;10.394;2023-06-26T21:07:49;4.43;;;1.93;;
3309;SDS011;1667;53.238;10.394;2023-06-26T21:12:48;14.20;;;2.50;;
3309;SDS011;1667;53.238;10.394;2023-06-26T21:17:46;3.00;;;2.00;;
3309;SDS011;1667;53.238;10.394;2023-06-26T21:22:45;4.70;;;2.07;;
3309;SDS011;1667;53.238;10.394;2023-06-26T21:27:45;7.20;;;2.90;;
3309;SDS011;1667;53.238;10.394;2023-06-26T21:32:43;5.60;;;1.83;;
3309;SDS011;1667;53.238;10.394;2023-06-26T21:37:42;4.23;;;2.00;;
3309;SDS011;1667;53.238;10.394;2023-06-26T21:42:40;1.67;;;1.53;;
3309;SDS011;1667;53.238;10.394;2023-06-26T21:47:40;4.97;;;2.27;;
3309;SDS011;1667;53.238;10.394;2023-06-26T21:52:39;2.80;;;1.73;;
3309;SDS011;1667;53.238;10.394;2023-06-26T21:57:38;7.73;;;3.07;;
3309;SDS011;1667;53.238;10.394;2023-06-26T22:02:36;6.43;;;2.77;;
3309;SDS011;1667;53.238;10.394;2023-06-26T22:07:38;2.60;;;1.90;;
3309;SDS011;1667;53.238;10.394;2023-06-26T22:12:51;10.33;;;1.90;;
3309;SDS011;1667;53.238;10.394;2023-06-26T22:17:51;4.10;;;2.03;;
3309;SDS011;1667;53.238;10.394;2023-06-26T22:22:53;6.50;;;2.27;;
3309;SDS011;1667;53.238;10.394;2023-06-26T22:27:52;6.00;;;2.53;;
3309;SDS011;1667;53.238;10.394;2023-06-26T22:32:51;4.13;;;2.33;;
3309;SDS011;1667;53.238;10.394;2023-06-26T22:37:49;6.53;;;2.20;;
3309;SDS011;1667;53.238;10.394;2023-06-26T22:42:50;5.87;;;2.83;;
3309;SDS011;1667;53.238;10.394;2023-06-26T22:47:48;5.50;;;2.30;;
3309;SDS011;1667;53.238;10.394;2023-06-26T22:52:47;8.27;;;2.07;;
3309;SDS011;1667;53.238;10.394;2023-06-26T22:57:45;3.60;;;2.33;;
3309;SDS011;1667;53.238;10.394;2023-06-26T23:02:45;4.40;;;2.23;;
3309;SDS011;1667;53.238;10.394;2023-06-26T23:07:44;7.73;;;1.70;;
3309;SDS011;1667;53.238;10.394;2023-06-26T23:12:42;4.33;;;1.70;;
3309;SDS011;1667;53.238;10.394;2023-06-26T23:17:41;3.70;;;2.13;;
3309;SDS011;1667;53.238;10.394;2023-06-26T23:22:43;3.03;;;2.10;;
3309;SDS011;1667;53.238;10.394;2023-06-26T23:27:41;4.03;;;2.20;;
3309;SDS011;1667;53.238;10.394;2023-06-26T23:32:40;3.27;;;1.80;;
3309;SDS011;1667;53.238;10.394;2023-06-26T23:37:38;5.37;;;1.80;;
3309;SDS011;1667;53.238;10.394;2023-06-26T23:42:38;5.20;;;2.63;;
3309;SDS011;1667;53.238;10.394;2023-06-26T23:47:37;6.40;;;2.10;;
3309;SDS011;1667;53.238;10.394;2023-06-26T23:52:36;4.47;;;2.30;;
3309;SDS011;1667;53.238;10.394;2023-06-26T23:57:36;3.47;;;2.20;;
